Terminal Aerodrome Forecast
Issued by NWS Lake Charles, LA

Home | Current Version | Previous Version | Text Only | Print | Product List | Glossary On
Versions: 1 2 3 4 5 6 7 8 9 10 11 12 13 14 15 16 17
000
FTUS44 KLCH 211121
TAFBPT
TAF
KBPT 211121Z 2112/2212 10011KT P6SM OVC040
     FM211500 13012G18KT P6SM SCT025 OVC040
     FM211800 14014G20KT P6SM VCSH BKN025
     FM220000 15012KT P6SM VCSH OVC020
     FM220400 16010KT 5SM -SHRA BR OVC015
      TEMPO 2208/2212 VRB12G22KT 2SM TSRA OVC007CB=

USA.gov is the U.S. government's official web portal to all federal, state and local government web resources and services.